Audubon Park, New Jersey
Current Conditions -  °F | °C
As of 7:54 PM on Friday 28 Nov 2014 (Local Time) from KPHL Reporting Station
Few Clouds Few Clouds  
Wind Chill: 24°   Ceiling: Unl
Heat Index: 31°   Visibility: 10mi
Dew Point: 16°   Wind: 7mph
Humidity: 54%   Direction: 270°W
Pressure: 30.29"   Gusts: NA
Location:  39.891°N, 75.0738°W
Report Text: KPHL 290054Z 27006KT 10SM FEW250 M01/M09 A3029 RMK AO2 SLP255 T10061089 $
Loading
Personal Weather Stations






























Interactive Weather Map New forecast layout! Learn more

10-Day Weather Forecast

Advertisements
Track Severe Weather on mobile